createdAt,value
2019-03-15T00:01:31.837Z,7.70
2019-03-15T00:04:12.456Z,7.70
2019-03-15T00:06:53.168Z,7.70
2019-03-15T00:09:33.826Z,7.70
2019-03-15T00:12:14.511Z,7.70
2019-03-15T00:14:55.267Z,7.70
2019-03-15T00:17:36.167Z,7.70
2019-03-15T00:20:17.200Z,7.70
2019-03-15T00:22:57.798Z,7.70
2019-03-15T00:25:38.595Z,7.70
2019-03-15T00:28:18.967Z,7.60
2019-03-15T00:30:59.774Z,7.60
2019-03-15T00:33:40.197Z,7.70
2019-03-15T00:36:21.169Z,7.70
2019-03-15T00:39:01.631Z,7.70
2019-03-15T00:41:42.260Z,7.70
2019-03-15T00:44:23.158Z,7.70
2019-03-15T00:47:03.638Z,7.70
2019-03-15T00:49:44.322Z,7.60
2019-03-15T00:52:24.725Z,7.70
2019-03-15T00:55:05.714Z,7.60
2019-03-15T00:57:46.535Z,7.60
2019-03-15T01:00:27.856Z,7.50
2019-03-15T01:03:08.961Z,7.50
2019-03-15T01:05:49.619Z,7.60
2019-03-15T01:08:30.138Z,7.60
2019-03-15T01:11:10.733Z,7.60
2019-03-15T01:13:51.182Z,7.60
2019-03-15T01:16:31.800Z,7.60
2019-03-15T01:19:12.663Z,7.60
2019-03-15T01:21:53.551Z,7.60
2019-03-15T01:24:34.240Z,7.50
2019-03-15T01:27:14.887Z,7.50
2019-03-15T01:29:55.991Z,7.50
2019-03-15T01:32:36.931Z,7.50
2019-03-15T01:35:17.450Z,7.50
2019-03-15T01:37:58.168Z,7.40
2019-03-15T01:40:39.136Z,7.30
2019-03-15T01:43:19.802Z,7.40
2019-03-15T01:46:00.448Z,7.40
2019-03-15T01:48:42.155Z,7.40
2019-03-15T01:51:23.144Z,7.30
2019-03-15T01:54:04.078Z,7.40
2019-03-15T01:56:44.499Z,7.40
2019-03-15T01:59:25.242Z,7.40
2019-03-15T02:02:06.027Z,7.50
2019-03-15T02:04:46.698Z,7.50
2019-03-15T02:07:27.286Z,7.40
2019-03-15T02:10:08.596Z,7.40
2019-03-15T02:12:49.619Z,7.30
2019-03-15T02:15:30.244Z,7.20
2019-03-15T02:18:10.585Z,7.30
2019-03-15T02:20:51.046Z,7.20
2019-03-15T02:23:31.816Z,7.20
2019-03-15T02:26:13.023Z,7.20
2019-03-15T02:28:54.269Z,7.20
2019-03-15T02:31:34.808Z,7.20
2019-03-15T02:34:15.471Z,7.30
2019-03-15T02:36:56.043Z,7.20
2019-03-15T02:39:36.549Z,7.30
2019-03-15T02:42:17.233Z,7.30
2019-03-15T02:44:58.011Z,7.30
2019-03-15T02:47:38.763Z,7.20
2019-03-15T02:50:19.290Z,7.30
2019-03-15T02:53:00.026Z,7.40
2019-03-15T02:55:40.575Z,7.40
2019-03-15T02:58:21.539Z,7.30
2019-03-15T03:01:02.804Z,7.30
2019-03-15T03:03:43.553Z,7.40
2019-03-15T03:06:24.411Z,7.40
2019-03-15T03:09:05.630Z,7.40
2019-03-15T03:11:46.115Z,7.40
2019-03-15T03:14:27.432Z,7.30
2019-03-15T03:17:08.276Z,7.40
2019-03-15T03:19:48.938Z,7.40
2019-03-15T03:22:29.716Z,7.30
2019-03-15T03:25:10.465Z,7.40
2019-03-15T03:27:51.266Z,7.30
2019-03-15T03:30:32.121Z,7.30
2019-03-15T03:33:13.021Z,7.40
2019-03-15T03:35:53.647Z,7.20
2019-03-15T03:38:34.474Z,7.20
2019-03-15T03:41:15.173Z,7.20
2019-03-15T03:43:56.189Z,7.20
2019-03-15T03:46:37.162Z,7.20
2019-03-15T03:49:17.760Z,7.20
2019-03-15T03:51:58.413Z,7.10
2019-03-15T03:54:39.114Z,7.10
2019-03-15T03:57:20.146Z,7.10
2019-03-15T04:00:01.375Z,7.20
2019-03-15T04:02:42.204Z,7.10
2019-03-15T04:05:22.786Z,7.00
2019-03-15T04:08:03.637Z,7.00
2019-03-15T04:10:44.996Z,7.00
2019-03-15T04:13:25.636Z,7.10
2019-03-15T04:16:06.530Z,7.10
2019-03-15T04:18:47.811Z,7.10
2019-03-15T04:21:28.581Z,7.10
2019-03-15T04:24:11.263Z,7.00
2019-03-15T04:26:52.054Z,7.10
2019-03-15T04:29:32.812Z,7.20
2019-03-15T04:32:13.246Z,7.20
2019-03-15T04:34:53.871Z,7.20
2019-03-15T04:37:34.665Z,7.20
2019-03-15T04:40:15.423Z,7.30
2019-03-15T04:42:55.792Z,7.30
2019-03-15T04:45:36.172Z,7.30
2019-03-15T04:48:16.912Z,7.30
2019-03-15T04:50:57.574Z,7.50
2019-03-15T04:53:38.283Z,7.50
2019-03-15T04:56:18.865Z,7.50
2019-03-15T04:58:59.267Z,7.50
2019-03-15T05:01:40.019Z,7.50
2019-03-15T05:04:21.076Z,7.50
2019-03-15T05:07:02.019Z,7.50
2019-03-15T05:09:43.235Z,7.50
2019-03-15T05:12:24.166Z,7.50
2019-03-15T05:15:04.715Z,7.30
2019-03-15T05:17:45.806Z,7.40
2019-03-15T05:20:26.165Z,7.40
2019-03-15T05:23:06.834Z,7.40
2019-03-15T05:25:47.555Z,7.40
2019-03-15T05:28:28.509Z,7.30
2019-03-15T05:31:08.983Z,7.40
2019-03-15T05:33:49.714Z,7.30
2019-03-15T05:36:30.526Z,7.40
2019-03-15T05:39:11.217Z,7.60
2019-03-15T05:41:52.001Z,7.50
2019-03-15T05:44:32.678Z,7.40
2019-03-15T05:47:13.329Z,7.30
2019-03-15T05:49:53.955Z,7.30
2019-03-15T05:52:34.631Z,7.40
2019-03-15T05:55:15.653Z,7.40
2019-03-15T05:57:56.465Z,7.30
2019-03-15T06:00:37.196Z,7.30
2019-03-15T06:03:17.812Z,7.30
2019-03-15T06:05:58.324Z,7.30
2019-03-15T06:08:39.322Z,7.40
2019-03-15T06:11:20.702Z,7.50
2019-03-15T06:14:01.155Z,7.40
2019-03-15T06:16:41.932Z,7.40
2019-03-15T06:19:22.895Z,7.40
2019-03-15T06:22:03.826Z,7.30
2019-03-15T06:24:44.377Z,7.30
2019-03-15T06:27:25.039Z,7.40
2019-03-15T06:30:06.352Z,7.40
2019-03-15T06:32:46.907Z,7.50
2019-03-15T06:35:27.500Z,7.40
2019-03-15T06:38:07.945Z,7.40
2019-03-15T06:40:48.620Z,7.50
2019-03-15T06:43:29.212Z,7.50
2019-03-15T06:46:09.766Z,7.50
2019-03-15T06:48:50.324Z,7.40
2019-03-15T06:51:31.287Z,7.40
2019-03-15T06:54:12.316Z,7.50
2019-03-15T06:56:52.882Z,7.60
2019-03-15T06:59:33.532Z,7.50
2019-03-15T07:02:14.158Z,7.60
2019-03-15T07:04:55.471Z,7.60
2019-03-15T07:07:36.419Z,7.60
2019-03-15T07:10:17.597Z,7.70
2019-03-15T07:12:58.382Z,7.70
2019-03-15T07:15:39.070Z,7.70
2019-03-15T07:18:19.946Z,7.80
2019-03-15T07:21:00.367Z,8.00
2019-03-15T07:23:40.768Z,7.90
2019-03-15T07:26:21.599Z,8.00
2019-03-15T07:29:02.511Z,8.00
2019-03-15T07:31:43.181Z,8.00
2019-03-15T07:34:23.858Z,8.00
2019-03-15T07:37:04.764Z,8.00
2019-03-15T07:39:45.716Z,8.00
2019-03-15T07:42:26.101Z,8.00
2019-03-15T07:45:06.843Z,8.00
2019-03-15T07:47:47.369Z,8.00
2019-03-15T07:50:28.288Z,8.30
2019-03-15T07:53:08.804Z,8.40
2019-03-15T07:55:49.595Z,8.40
2019-03-15T07:58:30.223Z,8.40
2019-03-15T08:01:10.787Z,8.40
2019-03-15T08:03:51.482Z,8.40
2019-03-15T08:06:34.961Z,8.30
2019-03-15T08:09:14.859Z,8.30
2019-03-15T08:11:55.467Z,8.40
2019-03-15T08:14:36.146Z,8.30
2019-03-15T08:17:16.868Z,8.30
2019-03-15T08:19:57.510Z,8.40
2019-03-15T08:22:38.151Z,8.40
2019-03-15T08:25:18.972Z,8.60
2019-03-15T08:28:00.248Z,8.60
2019-03-15T08:30:41.346Z,8.50
2019-03-15T08:33:22.167Z,8.40
2019-03-15T08:36:02.804Z,8.40
2019-03-15T08:38:47.778Z,8.60
2019-03-15T08:41:26.219Z,8.50
2019-03-15T08:44:06.899Z,8.60
2019-03-15T08:46:47.323Z,8.60
2019-03-15T08:49:27.901Z,8.50
2019-03-15T08:52:08.620Z,8.30
2019-03-15T08:54:49.224Z,8.20
2019-03-15T08:57:29.666Z,8.10
2019-03-15T09:00:10.375Z,8.10
2019-03-15T09:02:51.072Z,8.00
2019-03-15T09:05:32.104Z,8.20
2019-03-15T09:08:13.535Z,8.10
2019-03-15T09:10:54.723Z,8.20
2019-03-15T09:13:35.396Z,8.20
2019-03-15T09:16:16.695Z,8.20
2019-03-15T09:18:57.461Z,8.10
2019-03-15T09:21:37.839Z,8.20
2019-03-15T09:24:18.871Z,8.20
2019-03-15T09:26:59.902Z,8.40
2019-03-15T09:29:40.586Z,8.40
2019-03-15T09:32:21.150Z,8.40
2019-03-15T09:35:01.729Z,8.40
2019-03-15T09:37:42.430Z,8.50
2019-03-15T09:40:25.728Z,8.50
2019-03-15T09:43:05.892Z,8.50
2019-03-15T09:45:46.634Z,8.40
2019-03-15T09:48:27.548Z,8.60
2019-03-15T09:51:08.385Z,8.50
2019-03-15T09:53:49.264Z,8.50
2019-03-15T09:56:29.643Z,8.40
2019-03-15T09:59:10.659Z,8.40
2019-03-15T10:01:51.166Z,8.40
2019-03-15T10:04:31.868Z,8.30
2019-03-15T10:07:12.599Z,8.10
2019-03-15T10:09:53.368Z,8.10
2019-03-15T10:12:34.035Z,8.00
2019-03-15T10:15:14.578Z,8.10
2019-03-15T10:17:55.275Z,8.20
2019-03-15T10:20:35.982Z,8.30
2019-03-15T10:23:16.466Z,8.30
2019-03-15T10:25:57.027Z,8.40
2019-03-15T10:28:37.719Z,8.50
2019-03-15T10:31:18.418Z,8.70
2019-03-15T10:33:59.323Z,8.80
2019-03-15T10:36:40.398Z,8.80
2019-03-15T10:39:21.138Z,8.90
2019-03-15T10:42:01.845Z,8.90
2019-03-15T10:44:42.494Z,8.90
2019-03-15T10:47:23.207Z,8.80
2019-03-15T10:50:03.840Z,8.90
2019-03-15T10:52:44.773Z,8.90
2019-03-15T10:55:25.602Z,8.90
2019-03-15T10:58:06.435Z,9.00
2019-03-15T11:00:47.690Z,9.10
2019-03-15T11:03:28.347Z,9.10
2019-03-15T11:06:09.278Z,9.20
2019-03-15T11:08:50.535Z,9.20
2019-03-15T11:11:30.940Z,9.00
2019-03-15T11:14:11.564Z,9.00
2019-03-15T11:16:52.456Z,8.80
2019-03-15T11:19:33.265Z,8.90
2019-03-15T11:22:13.842Z,9.00
2019-03-15T11:24:54.480Z,9.00
2019-03-15T11:27:35.363Z,9.00
2019-03-15T11:30:16.038Z,9.00
2019-03-15T11:32:57.020Z,9.00
2019-03-15T11:35:38.019Z,9.00
2019-03-15T11:38:19.139Z,9.00
2019-03-15T11:41:00.262Z,9.00
2019-03-15T11:43:41.333Z,9.00
2019-03-15T11:46:21.681Z,9.00
2019-03-15T11:49:02.363Z,9.20
2019-03-15T11:51:43.154Z,9.30
2019-03-15T11:54:24.007Z,9.40
2019-03-15T11:57:06.725Z,9.60
2019-03-15T11:59:48.031Z,9.70
2019-03-15T12:02:28.424Z,9.60
2019-03-15T12:05:08.906Z,9.70
2019-03-15T12:07:49.519Z,9.60
2019-03-15T12:10:30.227Z,9.60
2019-03-15T12:13:10.578Z,9.60
2019-03-15T12:15:51.148Z,9.70
2019-03-15T12:18:31.575Z,9.80
2019-03-15T12:21:12.539Z,9.90
2019-03-15T12:23:53.782Z,10.00
2019-03-15T12:26:40.153Z,10.10
2019-03-15T12:29:17.003Z,10.30
2019-03-15T12:31:58.083Z,10.40
2019-03-15T12:34:39.303Z,10.50
2019-03-15T12:37:19.744Z,10.70
2019-03-15T12:40:00.610Z,10.60
2019-03-15T12:42:41.479Z,10.70
2019-03-15T12:45:21.975Z,10.60
2019-03-15T12:48:02.601Z,10.70
2019-03-15T12:50:43.223Z,10.60
2019-03-15T12:53:23.927Z,10.80
2019-03-15T12:56:04.725Z,10.90
2019-03-15T12:58:45.423Z,10.90
2019-03-15T13:01:26.111Z,10.90
2019-03-15T13:04:06.582Z,11.00
2019-03-15T13:06:47.283Z,11.00
2019-03-15T13:09:27.816Z,11.00
2019-03-15T13:12:08.095Z,11.00
2019-03-15T13:14:48.928Z,11.10
2019-03-15T13:17:30.188Z,11.00
2019-03-15T13:20:11.098Z,11.10
2019-03-15T13:22:52.178Z,11.00
2019-03-15T13:25:33.468Z,11.00
2019-03-15T13:28:14.287Z,11.00
2019-03-15T13:30:55.103Z,11.10
2019-03-15T13:33:35.946Z,11.40
2019-03-15T13:36:16.452Z,11.50
2019-03-15T13:38:57.082Z,11.60
2019-03-15T13:41:38.235Z,11.80
2019-03-15T13:44:18.678Z,11.90
2019-03-15T13:46:59.375Z,11.90
2019-03-15T13:49:40.622Z,12.00
2019-03-15T13:52:21.234Z,11.90
2019-03-15T13:55:02.184Z,12.10
2019-03-15T13:57:42.895Z,12.10
2019-03-15T14:00:23.711Z,12.20
2019-03-15T14:03:04.014Z,12.20
2019-03-15T14:05:44.926Z,12.20
2019-03-15T14:08:25.695Z,12.10
2019-03-15T14:11:06.748Z,12.10
2019-03-15T14:13:47.148Z,12.20
2019-03-15T14:16:28.159Z,12.30
2019-03-15T14:19:08.885Z,12.20
2019-03-15T14:21:49.603Z,12.10
2019-03-15T14:24:30.487Z,12.20
2019-03-15T14:27:11.680Z,12.30
2019-03-15T14:29:52.390Z,12.20
2019-03-15T14:32:32.953Z,12.20
2019-03-15T14:35:13.912Z,12.20
2019-03-15T14:37:54.523Z,12.10
2019-03-15T14:40:35.211Z,12.20
2019-03-15T14:43:16.771Z,12.10
2019-03-15T14:45:57.163Z,12.00
2019-03-15T14:48:38.103Z,12.00
2019-03-15T14:51:18.779Z,11.80
2019-03-15T14:53:59.455Z,11.60
2019-03-15T14:56:40.231Z,11.70
2019-03-15T14:59:21.010Z,11.60
2019-03-15T15:02:01.930Z,11.50
2019-03-15T15:04:42.393Z,11.50
2019-03-15T15:07:23.021Z,11.50
2019-03-15T15:10:03.727Z,11.40
2019-03-15T15:12:44.520Z,11.40
2019-03-15T15:15:25.347Z,11.40
2019-03-15T15:18:05.757Z,11.40
2019-03-15T15:20:46.685Z,11.50
2019-03-15T15:23:27.508Z,11.50
2019-03-15T15:26:08.536Z,11.60
2019-03-15T15:28:49.682Z,11.70
2019-03-15T15:31:30.068Z,11.70
2019-03-15T15:34:11.183Z,11.70
2019-03-15T15:36:52.302Z,11.70
2019-03-15T15:39:33.296Z,11.70
2019-03-15T15:42:14.547Z,11.70
2019-03-15T15:44:55.802Z,11.60
2019-03-15T15:47:36.698Z,11.60
2019-03-15T15:50:18.072Z,11.40
2019-03-15T15:52:59.000Z,11.00
2019-03-15T15:55:39.563Z,10.70
2019-03-15T15:58:20.291Z,10.50
2019-03-15T16:01:01.196Z,10.30
2019-03-15T16:03:41.933Z,10.30
2019-03-15T16:06:22.696Z,10.10
2019-03-15T16:09:04.575Z,10.10
2019-03-15T16:11:45.283Z,10.10
2019-03-15T16:14:25.630Z,10.10
2019-03-15T16:17:06.348Z,10.00
2019-03-15T16:19:47.169Z,10.00
2019-03-15T16:22:27.855Z,10.00
2019-03-15T16:25:08.666Z,9.90
2019-03-15T16:27:49.259Z,10.00
2019-03-15T16:30:30.152Z,10.00
2019-03-15T16:33:10.888Z,9.90
2019-03-15T16:35:51.402Z,9.90
2019-03-15T16:38:32.070Z,9.90
2019-03-15T16:41:12.687Z,9.90
2019-03-15T16:43:53.223Z,9.80
2019-03-15T16:46:33.707Z,9.90
2019-03-15T16:49:14.385Z,9.80
2019-03-15T16:51:55.392Z,9.70
2019-03-15T16:54:36.375Z,9.70
2019-03-15T16:57:16.672Z,9.70
2019-03-15T16:59:57.276Z,9.70
2019-03-15T17:02:37.855Z,9.80
2019-03-15T17:05:19.146Z,9.80
2019-03-15T17:08:00.347Z,9.80
2019-03-15T17:10:41.129Z,9.90
2019-03-15T17:13:21.776Z,9.70
2019-03-15T17:16:02.462Z,9.80
2019-03-15T17:18:42.937Z,9.80
2019-03-15T17:21:23.575Z,9.80
2019-03-15T17:24:04.407Z,9.90
2019-03-15T17:26:45.163Z,9.90
2019-03-15T17:29:26.055Z,9.90
2019-03-15T17:32:06.668Z,10.00
2019-03-15T17:34:47.718Z,10.00
2019-03-15T17:37:28.405Z,10.00
2019-03-15T17:40:09.048Z,10.10
2019-03-15T17:42:49.838Z,10.00
2019-03-15T17:45:30.247Z,10.00
2019-03-15T17:48:11.099Z,10.00
2019-03-15T17:50:51.802Z,9.90
2019-03-15T17:53:32.882Z,10.00
2019-03-15T17:56:13.246Z,9.90
2019-03-15T17:58:53.819Z,9.90
2019-03-15T18:01:34.968Z,10.00
2019-03-15T18:04:15.415Z,10.00
2019-03-15T18:06:56.147Z,9.90
2019-03-15T18:09:36.748Z,10.00
2019-03-15T18:12:17.348Z,10.00
2019-03-15T18:14:58.496Z,10.00
2019-03-15T18:17:39.276Z,10.00
2019-03-15T18:20:20.114Z,10.00
2019-03-15T18:23:00.868Z,10.00
2019-03-15T18:25:41.576Z,10.00
2019-03-15T18:28:23.637Z,9.90
2019-03-15T18:31:04.025Z,9.90
2019-03-15T18:33:44.842Z,9.80
2019-03-15T18:36:25.758Z,9.80
2019-03-15T18:39:08.150Z,9.80
2019-03-15T18:41:50.567Z,9.80
2019-03-15T18:44:31.694Z,9.80
2019-03-15T18:47:12.551Z,9.80
2019-03-15T18:49:53.507Z,9.70
2019-03-15T18:52:34.635Z,9.70
2019-03-15T18:55:15.464Z,9.60
2019-03-15T18:57:56.081Z,9.60
2019-03-15T19:00:36.759Z,9.60
2019-03-15T19:03:17.515Z,9.50
2019-03-15T19:05:58.471Z,9.50
2019-03-15T19:08:39.439Z,9.50
2019-03-15T19:11:19.924Z,9.50
2019-03-15T19:14:00.741Z,9.40
2019-03-15T19:16:42.033Z,9.40
2019-03-15T19:19:23.147Z,9.30
2019-03-15T19:22:04.439Z,9.30
2019-03-15T19:24:45.342Z,9.30
2019-03-15T19:27:26.503Z,9.30
2019-03-15T19:30:07.309Z,9.20
2019-03-15T19:32:48.048Z,9.20
2019-03-15T19:35:28.607Z,9.20
2019-03-15T19:38:09.434Z,9.20
2019-03-15T19:40:50.167Z,9.10
2019-03-15T19:43:30.799Z,9.00
2019-03-15T19:46:11.861Z,9.00
2019-03-15T19:48:52.772Z,9.10
2019-03-15T19:51:33.486Z,8.90
2019-03-15T19:54:14.290Z,8.90
2019-03-15T19:56:54.811Z,9.00
2019-03-15T19:59:35.510Z,8.90
2019-03-15T20:02:16.305Z,8.90
2019-03-15T20:04:56.956Z,8.90
2019-03-15T20:07:37.837Z,8.90
2019-03-15T20:10:18.672Z,8.80
2019-03-15T20:13:02.456Z,8.80
2019-03-15T20:15:42.018Z,8.90
2019-03-15T20:18:22.539Z,8.90
2019-03-15T20:21:03.424Z,8.90
2019-03-15T20:23:43.725Z,8.80
2019-03-15T20:26:24.311Z,8.80
2019-03-15T20:29:04.836Z,8.80
2019-03-15T20:31:45.715Z,8.80
2019-03-15T20:34:26.278Z,8.80
2019-03-15T20:37:06.749Z,8.70
2019-03-15T20:39:48.104Z,8.70
2019-03-15T20:42:28.829Z,8.70
2019-03-15T20:45:09.500Z,8.70
2019-03-15T20:47:50.030Z,8.70
2019-03-15T20:50:30.765Z,8.70
2019-03-15T20:53:12.966Z,8.80
2019-03-15T20:55:54.541Z,8.80
2019-03-15T20:58:35.413Z,8.80
2019-03-15T21:01:16.131Z,8.70
2019-03-15T21:03:57.073Z,8.70
2019-03-15T21:06:37.988Z,8.70
2019-03-15T21:09:18.604Z,8.70
2019-03-15T21:11:59.287Z,8.70
2019-03-15T21:14:39.915Z,8.70
2019-03-15T21:17:20.591Z,8.70
2019-03-15T21:20:01.598Z,8.60
2019-03-15T21:22:42.559Z,8.60
2019-03-15T21:25:23.064Z,8.60
2019-03-15T21:28:03.543Z,8.60
2019-03-15T21:30:48.716Z,8.60
2019-03-15T21:33:26.639Z,8.60
2019-03-15T21:36:07.031Z,8.50
2019-03-15T21:38:48.561Z,8.50
2019-03-15T21:41:29.172Z,8.50
2019-03-15T21:44:09.905Z,8.40
2019-03-15T21:46:50.547Z,8.40
2019-03-15T21:49:31.242Z,8.40
2019-03-15T21:52:12.135Z,8.40
2019-03-15T21:54:53.674Z,8.40
2019-03-15T21:57:34.556Z,8.40
2019-03-15T22:00:15.021Z,8.30
2019-03-15T22:02:55.522Z,8.40
2019-03-15T22:05:36.201Z,8.40
2019-03-15T22:08:16.957Z,8.40
2019-03-15T22:10:58.024Z,8.40
2019-03-15T22:13:38.492Z,8.30
2019-03-15T22:16:19.043Z,8.30
2019-03-15T22:18:59.479Z,8.20
2019-03-15T22:21:40.247Z,8.30
2019-03-15T22:24:20.683Z,8.30
2019-03-15T22:27:01.462Z,8.30
2019-03-15T22:29:53.065Z,8.20
2019-03-15T22:32:24.403Z,8.30
2019-03-15T22:35:04.856Z,8.30
2019-03-15T22:37:45.676Z,8.30
2019-03-15T22:40:26.375Z,8.30
2019-03-15T22:43:07.135Z,8.20
2019-03-15T22:45:48.095Z,8.20
2019-03-15T22:48:28.583Z,8.20
2019-03-15T22:51:09.374Z,8.20
2019-03-15T22:53:50.163Z,8.30
2019-03-15T22:56:30.974Z,8.20
2019-03-15T22:59:11.756Z,8.20
2019-03-15T23:01:52.705Z,8.20
2019-03-15T23:04:33.087Z,8.20
2019-03-15T23:07:13.941Z,8.10
2019-03-15T23:09:54.673Z,8.10
2019-03-15T23:12:35.146Z,8.20
2019-03-15T23:15:15.977Z,8.10
2019-03-15T23:17:56.845Z,8.20
2019-03-15T23:20:37.319Z,8.20
2019-03-15T23:23:23.929Z,8.20
2019-03-15T23:26:00.266Z,8.10
2019-03-15T23:28:40.950Z,8.20
2019-03-15T23:31:21.550Z,8.20
2019-03-15T23:34:02.370Z,8.20
2019-03-15T23:36:43.198Z,8.20
2019-03-15T23:39:23.809Z,8.20
2019-03-15T23:42:04.896Z,8.20
2019-03-15T23:44:46.044Z,8.20
2019-03-15T23:47:26.435Z,8.20
2019-03-15T23:50:06.916Z,8.20
2019-03-15T23:52:47.536Z,8.30
2019-03-15T23:55:27.989Z,8.30
2019-03-15T23:58:08.647Z,8.30
